sensor_id;sensor_type;location;lat;lon;timestamp;P1;durP1;ratioP1;P2;durP2;ratioP2
27491;SDS011;14927;51.210;6.838;2024-01-15T00:01:07;42.70;;;20.60;;
27491;SDS011;14927;51.210;6.838;2024-01-15T00:03:51;42.28;;;21.35;;
27491;SDS011;14927;51.210;6.838;2024-01-15T00:06:36;47.03;;;21.55;;
27491;SDS011;14927;51.210;6.838;2024-01-15T00:09:21;43.35;;;21.90;;
27491;SDS011;14927;51.210;6.838;2024-01-15T00:12:05;40.88;;;21.08;;
27491;SDS011;14927;51.210;6.838;2024-01-15T00:14:50;44.17;;;21.88;;
27491;SDS011;14927;51.210;6.838;2024-01-15T00:17:35;47.33;;;22.92;;
27491;SDS011;14927;51.210;6.838;2024-01-15T00:20:19;43.60;;;21.38;;
27491;SDS011;14927;51.210;6.838;2024-01-15T00:23:04;44.17;;;22.75;;
27491;SDS011;14927;51.210;6.838;2024-01-15T00:25:50;44.75;;;21.92;;
27491;SDS011;14927;51.210;6.838;2024-01-15T00:28:36;42.50;;;21.10;;
27491;SDS011;14927;51.210;6.838;2024-01-15T00:31:21;40.35;;;21.75;;
27491;SDS011;14927;51.210;6.838;2024-01-15T00:34:05;42.78;;;21.27;;
27491;SDS011;14927;51.210;6.838;2024-01-15T00:36:50;41.08;;;20.88;;
27491;SDS011;14927;51.210;6.838;2024-01-15T00:39:35;41.72;;;21.02;;
27491;SDS011;14927;51.210;6.838;2024-01-15T00:42:19;42.80;;;20.75;;
27491;SDS011;14927;51.210;6.838;2024-01-15T00:45:04;40.50;;;20.67;;
27491;SDS011;14927;51.210;6.838;2024-01-15T00:47:51;40.55;;;21.33;;
27491;SDS011;14927;51.210;6.838;2024-01-15T00:50:36;40.05;;;20.52;;
27491;SDS011;14927;51.210;6.838;2024-01-15T00:53:21;38.85;;;20.30;;
27491;SDS011;14927;51.210;6.838;2024-01-15T00:56:06;40.00;;;21.15;;
27491;SDS011;14927;51.210;6.838;2024-01-15T00:58:51;39.60;;;20.08;;
27491;SDS011;14927;51.210;6.838;2024-01-15T01:01:35;39.22;;;20.25;;
27491;SDS011;14927;51.210;6.838;2024-01-15T01:04:21;39.08;;;19.75;;
27491;SDS011;14927;51.210;6.838;2024-01-15T01:07:06;37.33;;;20.05;;
27491;SDS011;14927;51.210;6.838;2024-01-15T01:09:51;39.40;;;20.42;;
27491;SDS011;14927;51.210;6.838;2024-01-15T01:12:35;37.95;;;19.83;;
27491;SDS011;14927;51.210;6.838;2024-01-15T01:15:21;40.05;;;20.35;;
27491;SDS011;14927;51.210;6.838;2024-01-15T01:18:06;39.60;;;19.58;;
27491;SDS011;14927;51.210;6.838;2024-01-15T01:20:51;39.78;;;20.88;;
27491;SDS011;14927;51.210;6.838;2024-01-15T01:23:35;38.17;;;19.35;;
27491;SDS011;14927;51.210;6.838;2024-01-15T01:26:20;38.17;;;20.20;;
27491;SDS011;14927;51.210;6.838;2024-01-15T01:29:04;37.83;;;19.48;;
27491;SDS011;14927;51.210;6.838;2024-01-15T01:31:49;36.25;;;19.15;;
27491;SDS011;14927;51.210;6.838;2024-01-15T01:34:39;37.00;;;19.48;;
27491;SDS011;14927;51.210;6.838;2024-01-15T01:37:27;36.72;;;19.25;;
27491;SDS011;14927;51.210;6.838;2024-01-15T01:40:12;36.35;;;19.15;;
27491;SDS011;14927;51.210;6.838;2024-01-15T01:42:57;33.50;;;17.70;;
27491;SDS011;14927;51.210;6.838;2024-01-15T01:45:41;39.60;;;20.17;;
27491;SDS011;14927;51.210;6.838;2024-01-15T01:48:26;36.00;;;17.35;;
27491;SDS011;14927;51.210;6.838;2024-01-15T01:51:11;35.90;;;18.20;;
27491;SDS011;14927;51.210;6.838;2024-01-15T01:53:57;36.17;;;18.40;;
27491;SDS011;14927;51.210;6.838;2024-01-15T01:56:41;38.72;;;18.88;;
27491;SDS011;14927;51.210;6.838;2024-01-15T01:59:27;37.38;;;19.52;;
27491;SDS011;14927;51.210;6.838;2024-01-15T02:02:12;37.50;;;18.55;;
27491;SDS011;14927;51.210;6.838;2024-01-15T02:04:58;34.15;;;17.50;;
27491;SDS011;14927;51.210;6.838;2024-01-15T02:07:42;35.85;;;18.73;;
27491;SDS011;14927;51.210;6.838;2024-01-15T02:10:28;37.15;;;18.35;;
27491;SDS011;14927;51.210;6.838;2024-01-15T02:13:13;33.28;;;17.48;;
27491;SDS011;14927;51.210;6.838;2024-01-15T02:15:57;36.30;;;17.92;;
27491;SDS011;14927;51.210;6.838;2024-01-15T02:18:42;30.10;;;16.00;;
27491;SDS011;14927;51.210;6.838;2024-01-15T02:21:27;32.88;;;16.20;;
27491;SDS011;14927;51.210;6.838;2024-01-15T02:24:12;28.77;;;15.18;;
27491;SDS011;14927;51.210;6.838;2024-01-15T02:26:57;31.70;;;16.13;;
27491;SDS011;14927;51.210;6.838;2024-01-15T02:29:41;32.20;;;15.98;;
27491;SDS011;14927;51.210;6.838;2024-01-15T02:32:26;30.88;;;15.70;;
27491;SDS011;14927;51.210;6.838;2024-01-15T02:35:10;29.27;;;14.43;;
27491;SDS011;14927;51.210;6.838;2024-01-15T02:37:55;27.48;;;13.82;;
27491;SDS011;14927;51.210;6.838;2024-01-15T02:40:40;26.27;;;14.13;;
27491;SDS011;14927;51.210;6.838;2024-01-15T02:43:24;33.45;;;14.73;;
27491;SDS011;14927;51.210;6.838;2024-01-15T02:46:09;26.35;;;13.82;;
27491;SDS011;14927;51.210;6.838;2024-01-15T02:48:54;28.15;;;14.05;;
27491;SDS011;14927;51.210;6.838;2024-01-15T02:51:38;27.25;;;14.48;;
27491;SDS011;14927;51.210;6.838;2024-01-15T02:54:23;31.48;;;14.70;;
27491;SDS011;14927;51.210;6.838;2024-01-15T02:57:08;29.75;;;14.60;;
27491;SDS011;14927;51.210;6.838;2024-01-15T02:59:52;31.77;;;14.00;;
27491;SDS011;14927;51.210;6.838;2024-01-15T03:02:37;29.17;;;14.70;;
27491;SDS011;14927;51.210;6.838;2024-01-15T03:05:29;31.88;;;14.75;;
27491;SDS011;14927;51.210;6.838;2024-01-15T03:08:14;25.70;;;13.38;;
27491;SDS011;14927;51.210;6.838;2024-01-15T03:10:58;27.88;;;13.60;;
27491;SDS011;14927;51.210;6.838;2024-01-15T03:13:43;25.95;;;13.57;;
27491;SDS011;14927;51.210;6.838;2024-01-15T03:16:27;22.40;;;11.98;;
27491;SDS011;14927;51.210;6.838;2024-01-15T03:19:12;25.10;;;13.30;;
27491;SDS011;14927;51.210;6.838;2024-01-15T03:21:56;20.38;;;12.27;;
27491;SDS011;14927;51.210;6.838;2024-01-15T03:24:41;27.25;;;14.10;;
27491;SDS011;14927;51.210;6.838;2024-01-15T03:27:26;22.60;;;11.95;;
27491;SDS011;14927;51.210;6.838;2024-01-15T03:30:10;23.15;;;12.25;;
27491;SDS011;14927;51.210;6.838;2024-01-15T03:32:56;25.60;;;12.85;;
27491;SDS011;14927;51.210;6.838;2024-01-15T03:35:40;22.83;;;11.98;;
27491;SDS011;14927;51.210;6.838;2024-01-15T03:38:27;21.00;;;11.60;;
27491;SDS011;14927;51.210;6.838;2024-01-15T03:41:13;21.25;;;11.05;;
27491;SDS011;14927;51.210;6.838;2024-01-15T03:43:57;20.70;;;10.30;;
27491;SDS011;14927;51.210;6.838;2024-01-15T03:46:42;20.95;;;10.55;;
27491;SDS011;14927;51.210;6.838;2024-01-15T03:49:27;20.92;;;11.82;;
27491;SDS011;14927;51.210;6.838;2024-01-15T03:52:11;25.38;;;10.73;;
27491;SDS011;14927;51.210;6.838;2024-01-15T03:54:56;23.13;;;11.73;;
27491;SDS011;14927;51.210;6.838;2024-01-15T03:57:41;21.65;;;11.40;;
27491;SDS011;14927;51.210;6.838;2024-01-15T04:00:25;23.25;;;12.13;;
27491;SDS011;14927;51.210;6.838;2024-01-15T04:03:10;22.52;;;11.43;;
27491;SDS011;14927;51.210;6.838;2024-01-15T04:05:55;20.88;;;11.60;;
27491;SDS011;14927;51.210;6.838;2024-01-15T04:08:39;22.63;;;11.02;;
27491;SDS011;14927;51.210;6.838;2024-01-15T04:11:24;20.52;;;10.55;;
27491;SDS011;14927;51.210;6.838;2024-01-15T04:14:08;19.75;;;10.32;;
27491;SDS011;14927;51.210;6.838;2024-01-15T04:16:53;20.13;;;10.18;;
27491;SDS011;14927;51.210;6.838;2024-01-15T04:19:38;21.33;;;10.63;;
27491;SDS011;14927;51.210;6.838;2024-01-15T04:22:22;21.70;;;10.77;;
27491;SDS011;14927;51.210;6.838;2024-01-15T04:25:07;20.27;;;11.35;;
27491;SDS011;14927;51.210;6.838;2024-01-15T04:27:52;22.45;;;9.60;;
27491;SDS011;14927;51.210;6.838;2024-01-15T04:30:37;19.75;;;10.02;;
27491;SDS011;14927;51.210;6.838;2024-01-15T04:33:21;28.30;;;10.13;;
27491;SDS011;14927;51.210;6.838;2024-01-15T04:36:06;16.58;;;8.73;;
27491;SDS011;14927;51.210;6.838;2024-01-15T04:38:51;18.27;;;9.82;;
27491;SDS011;14927;51.210;6.838;2024-01-15T04:41:35;17.13;;;9.23;;
27491;SDS011;14927;51.210;6.838;2024-01-15T04:44:20;19.90;;;9.07;;
27491;SDS011;14927;51.210;6.838;2024-01-15T04:47:05;22.88;;;9.68;;
27491;SDS011;14927;51.210;6.838;2024-01-15T04:49:49;15.52;;;8.43;;
27491;SDS011;14927;51.210;6.838;2024-01-15T04:52:34;14.98;;;8.65;;
27491;SDS011;14927;51.210;6.838;2024-01-15T04:55:19;17.77;;;8.95;;
27491;SDS011;14927;51.210;6.838;2024-01-15T04:58:04;18.52;;;8.45;;
27491;SDS011;14927;51.210;6.838;2024-01-15T05:00:48;14.30;;;8.20;;
27491;SDS011;14927;51.210;6.838;2024-01-15T05:03:36;15.90;;;7.93;;
27491;SDS011;14927;51.210;6.838;2024-01-15T05:06:20;17.08;;;9.38;;
27491;SDS011;14927;51.210;6.838;2024-01-15T05:09:05;19.08;;;8.73;;
27491;SDS011;14927;51.210;6.838;2024-01-15T05:11:50;17.52;;;8.52;;
27491;SDS011;14927;51.210;6.838;2024-01-15T05:14:35;17.92;;;7.82;;
27491;SDS011;14927;51.210;6.838;2024-01-15T05:17:20;13.73;;;7.38;;
27491;SDS011;14927;51.210;6.838;2024-01-15T05:20:05;14.20;;;7.18;;
27491;SDS011;14927;51.210;6.838;2024-01-15T05:22:51;20.08;;;8.02;;
27491;SDS011;14927;51.210;6.838;2024-01-15T05:25:35;12.13;;;7.05;;
27491;SDS011;14927;51.210;6.838;2024-01-15T05:28:20;16.40;;;7.78;;
27491;SDS011;14927;51.210;6.838;2024-01-15T05:31:04;13.88;;;7.43;;
27491;SDS011;14927;51.210;6.838;2024-01-15T05:33:49;13.10;;;7.22;;
27491;SDS011;14927;51.210;6.838;2024-01-15T05:36:34;14.52;;;7.43;;
27491;SDS011;14927;51.210;6.838;2024-01-15T05:39:19;15.02;;;7.15;;
27491;SDS011;14927;51.210;6.838;2024-01-15T05:42:03;18.42;;;8.57;;
27491;SDS011;14927;51.210;6.838;2024-01-15T05:44:48;17.52;;;7.47;;
27491;SDS011;14927;51.210;6.838;2024-01-15T05:47:33;17.15;;;7.18;;
27491;SDS011;14927;51.210;6.838;2024-01-15T05:50:17;15.93;;;7.68;;
27491;SDS011;14927;51.210;6.838;2024-01-15T05:53:02;14.75;;;6.97;;
27491;SDS011;14927;51.210;6.838;2024-01-15T05:55:47;14.73;;;7.53;;
27491;SDS011;14927;51.210;6.838;2024-01-15T05:58:34;17.75;;;7.55;;
27491;SDS011;14927;51.210;6.838;2024-01-15T06:01:19;13.63;;;6.53;;
27491;SDS011;14927;51.210;6.838;2024-01-15T06:04:03;11.40;;;5.85;;
27491;SDS011;14927;51.210;6.838;2024-01-15T06:06:48;15.05;;;5.60;;
27491;SDS011;14927;51.210;6.838;2024-01-15T06:09:33;13.48;;;6.30;;
27491;SDS011;14927;51.210;6.838;2024-01-15T06:12:18;14.55;;;7.07;;
27491;SDS011;14927;51.210;6.838;2024-01-15T06:15:02;16.77;;;6.25;;
27491;SDS011;14927;51.210;6.838;2024-01-15T06:17:47;15.07;;;6.88;;
27491;SDS011;14927;51.210;6.838;2024-01-15T06:20:32;11.90;;;5.88;;
27491;SDS011;14927;51.210;6.838;2024-01-15T06:23:17;11.40;;;5.70;;
27491;SDS011;14927;51.210;6.838;2024-01-15T06:26:01;14.05;;;6.30;;
27491;SDS011;14927;51.210;6.838;2024-01-15T06:28:47;11.32;;;6.00;;
27491;SDS011;14927;51.210;6.838;2024-01-15T06:31:32;12.98;;;5.47;;
27491;SDS011;14927;51.210;6.838;2024-01-15T06:34:16;17.17;;;5.97;;
27491;SDS011;14927;51.210;6.838;2024-01-15T06:37:01;11.38;;;5.78;;
27491;SDS011;14927;51.210;6.838;2024-01-15T06:39:45;10.30;;;5.40;;
27491;SDS011;14927;51.210;6.838;2024-01-15T06:42:30;10.77;;;5.13;;
27491;SDS011;14927;51.210;6.838;2024-01-15T06:45:15;10.15;;;5.88;;
27491;SDS011;14927;51.210;6.838;2024-01-15T06:47:59;10.65;;;5.07;;
27491;SDS011;14927;51.210;6.838;2024-01-15T06:50:44;8.05;;;4.30;;
27491;SDS011;14927;51.210;6.838;2024-01-15T06:53:28;8.68;;;3.80;;
27491;SDS011;14927;51.210;6.838;2024-01-15T06:56:13;7.63;;;4.07;;
27491;SDS011;14927;51.210;6.838;2024-01-15T06:58:57;9.48;;;4.22;;
27491;SDS011;14927;51.210;6.838;2024-01-15T07:01:42;8.63;;;4.15;;
27491;SDS011;14927;51.210;6.838;2024-01-15T07:04:27;7.35;;;4.35;;
27491;SDS011;14927;51.210;6.838;2024-01-15T07:07:11;9.35;;;4.70;;
27491;SDS011;14927;51.210;6.838;2024-01-15T07:09:56;9.30;;;5.50;;
27491;SDS011;14927;51.210;6.838;2024-01-15T07:12:44;10.10;;;5.47;;
27491;SDS011;14927;51.210;6.838;2024-01-15T07:15:28;10.40;;;5.72;;
27491;SDS011;14927;51.210;6.838;2024-01-15T07:18:13;11.77;;;5.68;;
27491;SDS011;14927;51.210;6.838;2024-01-15T07:20:58;13.23;;;6.00;;
27491;SDS011;14927;51.210;6.838;2024-01-15T07:23:43;9.07;;;5.75;;
27491;SDS011;14927;51.210;6.838;2024-01-15T07:26:27;14.40;;;6.93;;
27491;SDS011;14927;51.210;6.838;2024-01-15T07:29:14;12.85;;;7.07;;
27491;SDS011;14927;51.210;6.838;2024-01-15T07:31:59;14.23;;;7.40;;
27491;SDS011;14927;51.210;6.838;2024-01-15T07:34:43;17.50;;;7.95;;
27491;SDS011;14927;51.210;6.838;2024-01-15T07:37:28;13.70;;;6.97;;
27491;SDS011;14927;51.210;6.838;2024-01-15T07:40:12;17.42;;;7.95;;
27491;SDS011;14927;51.210;6.838;2024-01-15T07:42:57;16.05;;;7.93;;
27491;SDS011;14927;51.210;6.838;2024-01-15T07:45:42;16.02;;;7.20;;
27491;SDS011;14927;51.210;6.838;2024-01-15T07:48:27;12.80;;;7.20;;
27491;SDS011;14927;51.210;6.838;2024-01-15T07:51:11;13.15;;;7.20;;
27491;SDS011;14927;51.210;6.838;2024-01-15T07:53:56;14.85;;;7.38;;
27491;SDS011;14927;51.210;6.838;2024-01-15T07:57:02;12.15;;;7.35;;
27491;SDS011;14927;51.210;6.838;2024-01-15T07:59:47;12.90;;;7.40;;
27491;SDS011;14927;51.210;6.838;2024-01-15T08:02:31;14.05;;;7.03;;
27491;SDS011;14927;51.210;6.838;2024-01-15T08:05:16;13.82;;;7.72;;
27491;SDS011;14927;51.210;6.838;2024-01-15T08:08:00;13.52;;;7.82;;
27491;SDS011;14927;51.210;6.838;2024-01-15T08:10:45;16.45;;;8.00;;
27491;SDS011;14927;51.210;6.838;2024-01-15T08:13:30;15.02;;;8.50;;
27491;SDS011;14927;51.210;6.838;2024-01-15T08:16:14;17.45;;;8.45;;
27491;SDS011;14927;51.210;6.838;2024-01-15T08:18:59;14.90;;;8.50;;
27491;SDS011;14927;51.210;6.838;2024-01-15T08:21:44;17.15;;;9.63;;
27491;SDS011;14927;51.210;6.838;2024-01-15T08:24:28;18.00;;;10.00;;
27491;SDS011;14927;51.210;6.838;2024-01-15T08:27:13;16.83;;;9.85;;
27491;SDS011;14927;51.210;6.838;2024-01-15T08:29:58;17.00;;;9.73;;
27491;SDS011;14927;51.210;6.838;2024-01-15T08:32:42;17.52;;;11.02;;
27491;SDS011;14927;51.210;6.838;2024-01-15T08:35:27;20.33;;;10.80;;
27491;SDS011;14927;51.210;6.838;2024-01-15T08:38:11;18.83;;;10.40;;
27491;SDS011;14927;51.210;6.838;2024-01-15T08:40:56;17.80;;;10.38;;
27491;SDS011;14927;51.210;6.838;2024-01-15T08:43:42;16.88;;;10.00;;
27491;SDS011;14927;51.210;6.838;2024-01-15T08:46:27;16.85;;;10.40;;
27491;SDS011;14927;51.210;6.838;2024-01-15T08:49:12;18.63;;;11.02;;
27491;SDS011;14927;51.210;6.838;2024-01-15T08:51:56;20.17;;;10.70;;
27491;SDS011;14927;51.210;6.838;2024-01-15T08:54:41;19.80;;;9.70;;
27491;SDS011;14927;51.210;6.838;2024-01-15T08:57:26;18.58;;;9.63;;
27491;SDS011;14927;51.210;6.838;2024-01-15T09:00:10;16.58;;;9.48;;
27491;SDS011;14927;51.210;6.838;2024-01-15T09:02:56;16.27;;;9.30;;
27491;SDS011;14927;51.210;6.838;2024-01-15T09:05:40;14.88;;;8.90;;
27491;SDS011;14927;51.210;6.838;2024-01-15T09:08:25;18.05;;;9.85;;
27491;SDS011;14927;51.210;6.838;2024-01-15T09:11:10;17.52;;;9.13;;
27491;SDS011;14927;51.210;6.838;2024-01-15T09:13:55;13.48;;;8.57;;
27491;SDS011;14927;51.210;6.838;2024-01-15T09:16:40;12.68;;;8.30;;
27491;SDS011;14927;51.210;6.838;2024-01-15T09:19:25;12.65;;;8.15;;
27491;SDS011;14927;51.210;6.838;2024-01-15T09:22:09;12.82;;;8.18;;
27491;SDS011;14927;51.210;6.838;2024-01-15T09:24:54;13.90;;;8.60;;
27491;SDS011;14927;51.210;6.838;2024-01-15T09:27:39;12.88;;;8.35;;
27491;SDS011;14927;51.210;6.838;2024-01-15T09:30:23;12.98;;;8.23;;
27491;SDS011;14927;51.210;6.838;2024-01-15T09:33:08;14.40;;;8.18;;
27491;SDS011;14927;51.210;6.838;2024-01-15T09:35:53;11.98;;;8.00;;
27491;SDS011;14927;51.210;6.838;2024-01-15T09:38:37;12.00;;;8.27;;
27491;SDS011;14927;51.210;6.838;2024-01-15T09:41:25;12.13;;;8.15;;
27491;SDS011;14927;51.210;6.838;2024-01-15T09:44:10;12.50;;;7.82;;
27491;SDS011;14927;51.210;6.838;2024-01-15T09:46:56;15.18;;;10.40;;
27491;SDS011;14927;51.210;6.838;2024-01-15T09:49:42;9.93;;;6.40;;
27491;SDS011;14927;51.210;6.838;2024-01-15T09:52:27;11.13;;;6.50;;
27491;SDS011;14927;51.210;6.838;2024-01-15T09:55:12;9.40;;;5.90;;
27491;SDS011;14927;51.210;6.838;2024-01-15T09:57:59;8.35;;;5.72;;
27491;SDS011;14927;51.210;6.838;2024-01-15T10:00:47;8.43;;;5.68;;
27491;SDS011;14927;51.210;6.838;2024-01-15T10:03:33;7.40;;;5.63;;
27491;SDS011;14927;51.210;6.838;2024-01-15T10:06:18;7.85;;;5.72;;
27491;SDS011;14927;51.210;6.838;2024-01-15T10:09:06;6.57;;;5.40;;
27491;SDS011;14927;51.210;6.838;2024-01-15T10:11:51;5.93;;;4.75;;
27491;SDS011;14927;51.210;6.838;2024-01-15T10:14:36;8.45;;;5.38;;
27491;SDS011;14927;51.210;6.838;2024-01-15T10:17:21;6.75;;;4.60;;
27491;SDS011;14927;51.210;6.838;2024-01-15T10:20:09;4.32;;;3.92;;
27491;SDS011;14927;51.210;6.838;2024-01-15T10:22:55;5.40;;;4.30;;
27491;SDS011;14927;51.210;6.838;2024-01-15T10:25:41;5.57;;;3.97;;
27491;SDS011;14927;51.210;6.838;2024-01-15T10:28:26;6.22;;;4.03;;
27491;SDS011;14927;51.210;6.838;2024-01-15T10:31:13;4.00;;;3.28;;
27491;SDS011;14927;51.210;6.838;2024-01-15T10:34:10;4.25;;;3.00;;
27491;SDS011;14927;51.210;6.838;2024-01-15T10:36:56;4.22;;;3.10;;
27491;SDS011;14927;51.210;6.838;2024-01-15T10:39:41;4.38;;;3.25;;
27491;SDS011;14927;51.210;6.838;2024-01-15T10:42:26;6.63;;;2.97;;
27491;SDS011;14927;51.210;6.838;2024-01-15T10:45:11;4.28;;;3.25;;
27491;SDS011;14927;51.210;6.838;2024-01-15T10:47:56;5.65;;;3.65;;
27491;SDS011;14927;51.210;6.838;2024-01-15T10:50:46;4.18;;;3.58;;
27491;SDS011;14927;51.210;6.838;2024-01-15T10:53:31;4.32;;;3.30;;
27491;SDS011;14927;51.210;6.838;2024-01-15T10:56:16;3.80;;;3.03;;
27491;SDS011;14927;51.210;6.838;2024-01-15T10:59:01;4.03;;;2.63;;
27491;SDS011;14927;51.210;6.838;2024-01-15T11:01:47;3.92;;;2.70;;
27491;SDS011;14927;51.210;6.838;2024-01-15T11:04:34;4.65;;;2.92;;
27491;SDS011;14927;51.210;6.838;2024-01-15T11:07:20;3.85;;;2.30;;
27491;SDS011;14927;51.210;6.838;2024-01-15T11:10:37;3.03;;;2.00;;
27491;SDS011;14927;51.210;6.838;2024-01-15T11:16:19;2.92;;;1.70;;
27491;SDS011;14927;51.210;6.838;2024-01-15T11:19:04;1.88;;;1.48;;
27491;SDS011;14927;51.210;6.838;2024-01-15T11:21:50;5.38;;;1.92;;
27491;SDS011;14927;51.210;6.838;2024-01-15T11:24:35;3.00;;;1.40;;
27491;SDS011;14927;51.210;6.838;2024-01-15T11:27:44;2.33;;;1.35;;
27491;SDS011;14927;51.210;6.838;2024-01-15T11:30:38;4.78;;;1.13;;
27491;SDS011;14927;51.210;6.838;2024-01-15T11:33:32;3.60;;;1.30;;
27491;SDS011;14927;51.210;6.838;2024-01-15T11:36:17;5.35;;;1.10;;
27491;SDS011;14927;51.210;6.838;2024-01-15T11:39:21;3.80;;;1.30;;
27491;SDS011;14927;51.210;6.838;2024-01-15T11:45:10;4.03;;;1.20;;
27491;SDS011;14927;51.210;6.838;2024-01-15T11:50:58;4.35;;;1.63;;
27491;SDS011;14927;51.210;6.838;2024-01-15T11:53:47;2.13;;;1.30;;
27491;SDS011;14927;51.210;6.838;2024-01-15T11:56:36;3.47;;;1.40;;
27491;SDS011;14927;51.210;6.838;2024-01-15T11:59:20;4.35;;;1.40;;
27491;SDS011;14927;51.210;6.838;2024-01-15T12:02:05;4.18;;;1.77;;
27491;SDS011;14927;51.210;6.838;2024-01-15T12:04:50;6.93;;;1.83;;
27491;SDS011;14927;51.210;6.838;2024-01-15T12:07:34;5.28;;;1.67;;
27491;SDS011;14927;51.210;6.838;2024-01-15T12:10:19;6.22;;;2.15;;
27491;SDS011;14927;51.210;6.838;2024-01-15T12:13:05;3.53;;;1.70;;
27491;SDS011;14927;51.210;6.838;2024-01-15T12:15:57;6.65;;;2.10;;
27491;SDS011;14927;51.210;6.838;2024-01-15T12:18:42;7.90;;;2.17;;
27491;SDS011;14927;51.210;6.838;2024-01-15T12:21:26;5.10;;;2.05;;
27491;SDS011;14927;51.210;6.838;2024-01-15T12:24:11;2.95;;;1.70;;
27491;SDS011;14927;51.210;6.838;2024-01-15T12:26:55;6.85;;;2.08;;
27491;SDS011;14927;51.210;6.838;2024-01-15T12:29:40;8.82;;;3.08;;
27491;SDS011;14927;51.210;6.838;2024-01-15T12:32:25;7.63;;;2.85;;
27491;SDS011;14927;51.210;6.838;2024-01-15T12:35:10;5.35;;;2.65;;
27491;SDS011;14927;51.210;6.838;2024-01-15T12:37:55;7.53;;;2.70;;
27491;SDS011;14927;51.210;6.838;2024-01-15T12:40:40;5.13;;;2.42;;
27491;SDS011;14927;51.210;6.838;2024-01-15T12:43:30;5.10;;;2.92;;
27491;SDS011;14927;51.210;6.838;2024-01-15T12:46:15;9.20;;;3.38;;
27491;SDS011;14927;51.210;6.838;2024-01-15T12:48:59;7.50;;;3.38;;
27491;SDS011;14927;51.210;6.838;2024-01-15T12:51:51;5.13;;;3.30;;
27491;SDS011;14927;51.210;6.838;2024-01-15T12:54:41;7.97;;;3.47;;
27491;SDS011;14927;51.210;6.838;2024-01-15T12:57:25;9.05;;;3.70;;
27491;SDS011;14927;51.210;6.838;2024-01-15T13:00:10;8.40;;;3.88;;
27491;SDS011;14927;51.210;6.838;2024-01-15T13:02:56;6.88;;;3.58;;
27491;SDS011;14927;51.210;6.838;2024-01-15T13:05:41;5.50;;;3.22;;
27491;SDS011;14927;51.210;6.838;2024-01-15T13:08:25;7.82;;;3.10;;
27491;SDS011;14927;51.210;6.838;2024-01-15T13:11:12;8.73;;;3.67;;
27491;SDS011;14927;51.210;6.838;2024-01-15T13:13:56;6.95;;;2.83;;
27491;SDS011;14927;51.210;6.838;2024-01-15T13:16:41;14.98;;;6.25;;
27491;SDS011;14927;51.210;6.838;2024-01-15T13:19:26;7.75;;;3.00;;
27491;SDS011;14927;51.210;6.838;2024-01-15T13:22:11;8.55;;;2.10;;
27491;SDS011;14927;51.210;6.838;2024-01-15T13:24:58;6.03;;;2.53;;
27491;SDS011;14927;51.210;6.838;2024-01-15T13:27:43;7.90;;;2.22;;
27491;SDS011;14927;51.210;6.838;2024-01-15T13:30:27;5.93;;;2.38;;
27491;SDS011;14927;51.210;6.838;2024-01-15T13:33:12;7.32;;;1.88;;
27491;SDS011;14927;51.210;6.838;2024-01-15T13:35:57;4.90;;;1.90;;
27491;SDS011;14927;51.210;6.838;2024-01-15T13:38:41;5.13;;;1.80;;
27491;SDS011;14927;51.210;6.838;2024-01-15T13:41:26;4.63;;;1.80;;
27491;SDS011;14927;51.210;6.838;2024-01-15T13:44:13;2.80;;;1.40;;
27491;SDS011;14927;51.210;6.838;2024-01-15T13:46:58;5.00;;;1.77;;
27491;SDS011;14927;51.210;6.838;2024-01-15T13:49:43;4.43;;;1.40;;
27491;SDS011;14927;51.210;6.838;2024-01-15T13:52:27;3.70;;;1.25;;
27491;SDS011;14927;51.210;6.838;2024-01-15T13:55:12;6.22;;;1.23;;
27491;SDS011;14927;51.210;6.838;2024-01-15T13:57:57;7.30;;;0.90;;
27491;SDS011;14927;51.210;6.838;2024-01-15T14:00:41;2.35;;;0.80;;
27491;SDS011;14927;51.210;6.838;2024-01-15T14:03:26;3.50;;;0.90;;
27491;SDS011;14927;51.210;6.838;2024-01-15T14:06:11;2.35;;;1.00;;
27491;SDS011;14927;51.210;6.838;2024-01-15T14:08:55;2.95;;;0.80;;
27491;SDS011;14927;51.210;6.838;2024-01-15T14:11:40;2.80;;;1.00;;
27491;SDS011;14927;51.210;6.838;2024-01-15T14:14:25;2.88;;;1.15;;
27491;SDS011;14927;51.210;6.838;2024-01-15T14:17:09;2.75;;;1.10;;
27491;SDS011;14927;51.210;6.838;2024-01-15T14:19:54;2.38;;;0.80;;
27491;SDS011;14927;51.210;6.838;2024-01-15T14:22:41;1.95;;;0.73;;
27491;SDS011;14927;51.210;6.838;2024-01-15T14:25:26;1.63;;;0.90;;
27491;SDS011;14927;51.210;6.838;2024-01-15T14:28:10;2.50;;;0.77;;
27491;SDS011;14927;51.210;6.838;2024-01-15T14:30:55;2.58;;;0.73;;
27491;SDS011;14927;51.210;6.838;2024-01-15T14:33:42;3.20;;;0.57;;
27491;SDS011;14927;51.210;6.838;2024-01-15T14:36:27;1.85;;;0.70;;
27491;SDS011;14927;51.210;6.838;2024-01-15T14:39:12;4.38;;;0.80;;
27491;SDS011;14927;51.210;6.838;2024-01-15T14:41:56;3.47;;;1.10;;
27491;SDS011;14927;51.210;6.838;2024-01-15T14:44:41;3.70;;;0.80;;
27491;SDS011;14927;51.210;6.838;2024-01-15T14:47:26;2.58;;;1.27;;
27491;SDS011;14927;51.210;6.838;2024-01-15T14:50:11;1.95;;;0.90;;
27491;SDS011;14927;51.210;6.838;2024-01-15T14:52:56;4.45;;;0.95;;
27491;SDS011;14927;51.210;6.838;2024-01-15T14:55:41;1.80;;;0.70;;
27491;SDS011;14927;51.210;6.838;2024-01-15T14:58:26;2.42;;;0.82;;
27491;SDS011;14927;51.210;6.838;2024-01-15T15:01:10;1.33;;;0.70;;
27491;SDS011;14927;51.210;6.838;2024-01-15T15:03:56;6.35;;;0.90;;
27491;SDS011;14927;51.210;6.838;2024-01-15T15:06:41;3.05;;;0.80;;
27491;SDS011;14927;51.210;6.838;2024-01-15T15:09:26;4.88;;;1.02;;
27491;SDS011;14927;51.210;6.838;2024-01-15T15:12:10;2.17;;;0.70;;
27491;SDS011;14927;51.210;6.838;2024-01-15T15:14:55;2.47;;;0.93;;
27491;SDS011;14927;51.210;6.838;2024-01-15T15:17:40;2.15;;;0.70;;
27491;SDS011;14927;51.210;6.838;2024-01-15T15:20:25;1.48;;;0.65;;
27491;SDS011;14927;51.210;6.838;2024-01-15T15:23:10;1.55;;;0.63;;
27491;SDS011;14927;51.210;6.838;2024-01-15T15:25:54;1.98;;;0.57;;
27491;SDS011;14927;51.210;6.838;2024-01-15T15:28:39;3.47;;;1.10;;
27491;SDS011;14927;51.210;6.838;2024-01-15T15:31:24;1.38;;;0.65;;
27491;SDS011;14927;51.210;6.838;2024-01-15T15:34:08;1.88;;;0.80;;
27491;SDS011;14927;51.210;6.838;2024-01-15T15:36:53;3.80;;;0.70;;
27491;SDS011;14927;51.210;6.838;2024-01-15T15:39:38;1.33;;;0.80;;
27491;SDS011;14927;51.210;6.838;2024-01-15T15:42:22;3.22;;;0.55;;
27491;SDS011;14927;51.210;6.838;2024-01-15T15:45:08;2.20;;;1.00;;
27491;SDS011;14927;51.210;6.838;2024-01-15T15:47:56;2.78;;;0.82;;
27491;SDS011;14927;51.210;6.838;2024-01-15T15:50:41;1.45;;;0.80;;
27491;SDS011;14927;51.210;6.838;2024-01-15T15:53:25;1.55;;;0.93;;
27491;SDS011;14927;51.210;6.838;2024-01-15T15:56:10;3.35;;;1.05;;
27491;SDS011;14927;51.210;6.838;2024-01-15T15:58:55;2.83;;;1.05;;
27491;SDS011;14927;51.210;6.838;2024-01-15T16:01:39;5.35;;;0.95;;
27491;SDS011;14927;51.210;6.838;2024-01-15T16:04:24;1.10;;;0.80;;
27491;SDS011;14927;51.210;6.838;2024-01-15T16:07:09;3.05;;;0.90;;
27491;SDS011;14927;51.210;6.838;2024-01-15T16:09:55;2.83;;;1.10;;
27491;SDS011;14927;51.210;6.838;2024-01-15T16:12:40;4.13;;;1.50;;
27491;SDS011;14927;51.210;6.838;2024-01-15T16:15:25;4.68;;;1.40;;
27491;SDS011;14927;51.210;6.838;2024-01-15T16:18:09;5.43;;;1.50;;
27491;SDS011;14927;51.210;6.838;2024-01-15T16:20:54;4.95;;;1.52;;
27491;SDS011;14927;51.210;6.838;2024-01-15T16:23:39;4.80;;;1.10;;
27491;SDS011;14927;51.210;6.838;2024-01-15T16:26:24;4.57;;;0.90;;
27491;SDS011;14927;51.210;6.838;2024-01-15T16:29:09;3.33;;;1.33;;
27491;SDS011;14927;51.210;6.838;2024-01-15T16:31:53;5.65;;;1.30;;